CDT,Max TemperatureF,Mean TemperatureF,Min TemperatureF,Max Dew PointF,MeanDew PointF,Min DewpointF,Max Humidity, Mean Humidity, Min Humidity, Max Sea Level PressureIn, Mean Sea Level PressureIn, Min Sea Level PressureIn, Max VisibilityMiles, Mean VisibilityMiles, Min VisibilityMiles, Max Wind SpeedMPH, Mean Wind SpeedMPH, Max Gust SpeedMPH,PrecipitationIn, CloudCover, Events, WindDirDegrees
2013-9-1,71,60,49,58,55,48,100,80,59,30.05,29.94,29.80,,,,18,9,24,0.00,,,354
2013-9-2,74,59,43,54,49,43,100,71,41,30.12,30.06,30.01,,,,8,3,16,0.00,,,14
2013-9-3,83,66,48,65,57,46,100,74,47,30.01,29.97,29.93,,,,12,5,15,0.00,,,159
2013-9-4,83,70,57,65,60,54,97,72,47,30.11,30.06,29.97,,,,12,5,17,0.00,,,32
2013-9-5,88,73,57,67,62,56,97,72,46,30.13,30.05,29.95,,,,17,7,23,0.00,,,171
2013-9-6,93,80,66,71,66,63,93,70,47,29.94,29.85,29.77,,,,10,4,16,0.00,,,139
2013-9-7,90,77,63,70,67,63,100,75,50,29.96,29.90,29.83,,,,12,5,18,0.00,,,14
2013-9-8,70,67,64,67,64,59,100,87,73,29.99,29.90,29.80,,,,13,6,17,0.02,,,147
2013-9-9,83,74,65,71,66,64,100,81,62,29.77,29.67,29.59,,,,20,8,26,0.01,,,258
2013-9-10,81,73,64,65,60,57,100,73,45,29.94,29.86,29.77,,,,15,8,20,0.00,,,293
2013-9-11,87,70,52,59,51,44,86,56,25,30.13,30.02,29.94,,,,23,10,29,0.00,,,322
2013-9-12,76,61,46,51,48,44,93,66,38,30.27,30.22,30.14,,,,13,5,21,0.00,,,360
2013-9-13,78,60,42,50,46,42,100,66,31,30.23,30.12,29.96,,,,13,6,21,0.00,,,181
2013-9-14,63,58,52,58,55,48,100,84,67,29.95,29.86,29.78,,,,13,7,22,0.82,,,161
2013-9-15,65,54,42,56,52,43,100,82,63,30.33,30.16,29.91,,,,17,7,21,0.01,,,2
2013-9-16,69,54,38,50,45,37,100,72,44,30.37,30.27,30.12,,,,14,6,21,0.00,,,171
2013-9-17,68,59,49,59,54,47,100,84,68,30.11,29.93,29.78,,,,20,9,25,0.00,,,165
2013-9-18,91,75,59,70,63,46,100,63,26,29.77,29.61,29.49,,,,24,7,37,0.09,,,177
2013-9-19,77,66,55,64,55,47,100,67,33,29.88,29.73,29.56,,,,23,11,30,0.01,,,323
2013-9-20,65,51,37,53,45,39,100,72,43,30.00,29.94,29.86,,,,21,10,28,0.00,,,331
2013-9-21,68,51,33,46,40,32,100,69,37,30.04,29.95,29.86,,,,10,4,16,0.00,,,158
2013-9-22,87,65,43,55,49,43,100,66,31,29.85,29.70,29.57,,,,23,11,33,0.00,,,177
2013-9-23,82,70,57,52,50,47,80,56,31,29.77,29.66,29.61,,,,25,12,35,0.00,,,177
2013-9-24,76,63,50,56,53,50,96,71,46,29.91,29.86,29.78,,,,12,4,17,0.00,,,148
2013-9-25,79,64,48,58,51,48,100,69,38,29.87,29.78,29.68,,,,21,9,29,0.00,,,166
2013-9-26,84,70,56,61,57,52,93,67,40,29.71,29.66,29.62,,,,23,10,33,0.00,,,192
2013-9-27,73,63,52,61,54,50,100,82,64,29.78,29.71,29.63,,,,20,8,24,0.60,,,344
2013-9-28,64,57,50,51,46,38,100,70,39,29.87,29.76,29.65,,,,23,11,29,1.09,,,302
2013-9-29,79,64,48,48,43,40,71,48,25,29.86,29.72,29.53,,,,18,9,28,0.00,,,207
2013-9-30,82,69,56,53,48,46,78,54,30,29.55,29.50,29.44,,,,28,7,39,0.00,,,222